Time;durP1;ratioP1;P1;durP2;ratioP2;P2;SDS_P1;SDS_P2;PMS_P1;PMS_P2;Temp;Humidity;BMP_temperature;BMP_pressure;BME280_temperature;BME280_humidity;BME280_pressure;Samples;Min_cycle;Max_cycle;Signal;HPM_P1;HPM_P2
2021/06/15 00:05:17;;;;;;;4.70;1.13;;;;;;;20.22;100.00;102127.45;1919829;73;40068;-74
2021/06/15 00:10:43;;;;;;;6.07;1.67;;;;;;;20.07;100.00;102124.98;1876971;75;86611;-68
2021/06/15 00:16:10;;;;;;;4.23;1.40;;;;;;;19.95;100.00;102121.89;1948200;73;39484;-69
2021/06/15 00:21:34;;;;;;;3.37;1.50;;;;;;;19.94;100.00;102126.69;1876970;75;86660;-69
2021/06/15 00:26:59;;;;;;;3.57;1.27;;;;;;;19.88;100.00;102132.21;1838551;77;85920;-68
2021/06/15 00:32:24;;;;;;;4.93;1.30;;;;;;;19.75;100.00;102140.12;1914897;73;39624;-68
2021/06/15 00:37:49;;;;;;;4.40;1.40;;;;;;;19.63;100.00;102130.53;1867420;75;86886;-76
2021/06/15 00:43:14;;;;;;;5.53;1.57;;;;;;;19.44;100.00;102123.03;1918780;73;39550;-76
2021/06/15 00:48:43;;;;;;;3.40;1.30;;;;;;;19.34;100.00;102118.97;1877925;75;86810;-68
2021/06/15 00:54:09;;;;;;;2.63;0.90;;;;;;;19.45;100.00;102121.05;1937527;72;39842;-69
2021/06/15 00:59:33;;;;;;;5.50;1.33;;;;;;;19.34;100.00;102122.39;1908717;73;39488;-68
2021/06/15 01:05:00;;;;;;;2.07;1.20;;;;;;;19.27;100.00;102119.98;1889576;74;86587;-74
2021/06/15 01:14:06;;;;;;;3.47;1.30;;;;;;;19.18;100.00;102114.80;1856935;76;85669;-67
2021/06/15 01:19:44;;;;;;;3.33;1.10;;;;;;;18.90;100.00;102115.94;1892004;74;86538;-76
2021/06/15 01:25:35;;;;;;;6.17;1.47;;;;;;;18.85;100.00;102121.09;1979919;71;39788;-67
2021/06/15 01:31:04;;;;;;;3.60;1.03;;;;;;;18.69;100.00;102114.08;1949438;73;39464;-73
2021/06/15 01:36:35;;;;;;;2.73;1.00;;;;;;;18.64;100.00;102112.77;1916806;73;39514;-68
2021/06/15 01:44:53;;;;;;;4.70;1.60;;;;;;;18.37;100.00;102127.54;1889949;75;85818;-68
2021/06/15 01:50:31;;;;;;;3.73;1.13;;;;;;;18.35;100.00;102120.56;1944713;73;39577;-77
2021/06/15 01:55:55;;;;;;;2.30;1.40;;;;;;;18.37;100.00;102133.73;1947625;71;86060;-68
2021/06/15 02:01:22;;;;;;;2.70;1.43;;;;;;;18.19;100.00;102136.27;1915573;73;39524;-76
2021/06/15 02:06:49;;;;;;;3.27;1.30;;;;;;;18.16;100.00;102142.51;1869304;76;86489;-76
2021/06/15 02:12:16;;;;;;;2.70;1.13;;;;;;;18.19;100.00;102143.86;1946456;73;39671;-77
2021/06/15 02:18:02;;;;;;;4.77;1.47;;;;;;;17.98;100.00;102151.77;1884119;74;86235;-75
2021/06/15 02:23:29;;;;;;;5.87;1.90;;;;;;;18.04;100.00;102146.36;1943757;73;39485;-77
2021/06/15 02:28:56;;;;;;;3.77;1.50;;;;;;;17.95;100.00;102149.58;1838079;77;86790;-77
2021/06/15 02:34:23;;;;;;;6.43;1.77;;;;;;;18.13;100.00;102161.41;1933814;72;39631;-67
2021/06/15 02:39:49;;;;;;;3.10;1.40;;;;;;;17.84;100.00;102149.44;1867414;75;86053;-75
2021/06/15 02:45:17;;;;;;;5.60;1.60;;;;;;;17.90;100.00;102140.38;1929111;72;39687;-76
2021/06/15 02:50:41;;;;;;;5.47;1.60;;;;;;;17.45;100.00;102144.63;1876932;75;86614;-77
2021/06/15 02:56:11;;;;;;;5.17;1.60;;;;;;;17.23;100.00;102129.16;1938497;72;39610;-77
2021/06/15 03:01:35;;;;;;;4.90;1.40;;;;;;;17.26;100.00;102130.52;1876987;75;86914;-76
2021/06/15 03:07:03;;;;;;;7.03;1.80;;;;;;;17.10;100.00;102132.67;1838793;77;85905;-76
2021/06/15 03:12:30;;;;;;;3.87;1.83;;;;;;;17.19;100.00;102139.88;1913376;73;39501;-68
2021/06/15 03:18:02;;;;;;;4.87;1.63;;;;;;;17.10;100.00;102140.25;1833277;78;86623;-76
2021/06/15 03:23:40;;;;;;;8.80;2.00;;;;;;;17.17;100.00;102135.95;1944245;73;39713;-76
2021/06/15 03:26:14;;;;;;;5.07;2.13;;;;;;;17.18;100.00;102136.79;1879909;75;934554;-68
2021/06/15 03:31:43;;;;;;;5.07;1.80;;;;;;;17.16;100.00;102136.23;1882184;75;86561;-76
2021/06/15 03:37:12;;;;;;;5.77;1.93;;;;;;;17.32;100.00;102133.55;1922376;73;39547;-76
2021/06/15 03:42:39;;;;;;;6.57;1.97;;;;;;;17.09;100.00;102123.97;1878067;75;86431;-77
2021/06/15 03:48:06;;;;;;;3.27;1.50;;;;;;;17.21;100.00;102126.36;1939343;73;39787;-67
2021/06/15 03:53:34;;;;;;;5.60;2.30;;;;;;;16.95;100.00;102130.02;1909807;73;39576;-76
2021/06/15 03:59:00;;;;;;;6.70;2.10;;;;;;;16.94;100.00;102141.00;1838620;77;86092;-68
2021/06/15 04:04:30;;;;;;;4.90;1.70;;;;;;;16.99;100.00;102152.70;1912812;73;39511;-67
2021/06/15 04:09:56;;;;;;;3.50;1.60;;;;;;;16.95;100.00;102158.09;1943057;70;85987;-67
2021/06/15 04:15:24;;;;;;;6.83;2.20;;;;;;;16.99;100.00;102153.55;1930677;72;39668;-67
2021/06/15 04:20:52;;;;;;;6.67;2.07;;;;;;;17.04;100.00;102150.70;1867507;75;86599;-76
2021/06/15 04:26:22;;;;;;;3.97;1.73;;;;;;;17.09;100.00;102151.20;1895807;73;39491;-67
2021/06/15 04:31:49;;;;;;;4.13;1.80;;;;;;;17.00;100.00;102158.03;1882976;75;85013;-68
2021/06/15 04:37:17;;;;;;;5.60;2.00;;;;;;;17.06;100.00;102163.05;1946428;73;39486;-67
2021/06/15 04:42:49;;;;;;;3.77;1.67;;;;;;;17.04;100.00;102164.73;1837215;77;86294;-77
2021/06/15 04:48:15;;;;;;;6.13;2.03;;;;;;;17.05;100.00;102175.40;1919814;73;39635;-68
2021/06/15 04:53:42;;;;;;;7.43;2.13;;;;;;;17.07;100.00;102175.36;1877321;75;86137;-68
2021/06/15 04:59:09;;;;;;;5.53;1.80;;;;;;;17.01;100.00;102180.77;1948615;73;39530;-77
2021/06/15 05:04:33;;;;;;;5.47;2.30;;;;;;;16.82;100.00;102145.58;1943299;73;39553;-68
2021/06/15 05:10:01;;;;;;;8.17;2.50;;;;;;;17.04;100.00;102197.02;1825229;76;86779;-67
2021/06/15 05:15:31;;;;;;;4.97;2.23;;;;;;;17.03;100.00;102202.35;1938971;73;39676;-68
2021/06/15 05:20:55;;;;;;;5.37;1.97;;;;;;;17.10;100.00;102202.87;1947218;71;85806;-76
2021/06/15 05:26:21;;;;;;;4.77;2.20;;;;;;;17.01;100.00;102217.27;1945152;73;39922;-77
2021/06/15 05:31:46;;;;;;;5.40;1.80;;;;;;;17.12;100.00;102209.00;1837367;77;85676;-77
2021/06/15 05:37:11;;;;;;;8.03;2.50;;;;;;;17.15;100.00;102215.45;1947195;73;39483;-69
2021/06/15 05:42:35;;;;;;;4.90;1.80;;;;;;;17.25;100.00;102220.95;1892074;74;86214;-68
2021/06/15 05:48:00;;;;;;;5.97;2.60;;;;;;;17.14;100.00;102211.53;1777459;80;86625;-76
2021/06/15 05:53:26;;;;;;;5.97;2.50;;;;;;;17.09;100.00;102219.44;1894299;73;39519;-74
2021/06/15 05:58:51;;;;;;;6.17;2.40;;;;;;;16.81;100.00;102231.50;1760717;80;85429;-68
2021/06/15 06:04:18;;;;;;;4.77;2.07;;;;;;;17.06;100.00;102227.05;1933655;72;48665;-66
2021/06/15 06:09:43;;;;;;;7.60;2.43;;;;;;;17.14;100.00;102232.59;1892647;74;86245;-76
2021/06/15 06:15:13;;;;;;;6.93;2.13;;;;;;;17.45;100.00;102237.33;1921618;73;39482;-68
2021/06/15 06:20:39;;;;;;;4.60;2.10;;;;;;;17.63;100.00;102231.78;1877188;75;86404;-68
2021/06/15 06:26:03;;;;;;;5.70;1.93;;;;;;;17.78;100.00;102234.99;1949313;73;39623;-75
2021/06/15 06:31:28;;;;;;;7.07;1.90;;;;;;;18.02;100.00;102237.77;1891562;73;39488;-76
2021/06/15 06:36:54;;;;;;;6.17;2.20;;;;;;;18.14;100.00;102229.14;1947323;71;86473;-76
2021/06/15 06:42:19;;;;;;;5.37;1.93;;;;;;;18.12;100.00;102237.06;1918954;73;39831;-76
2021/06/15 06:47:43;;;;;;;5.07;2.20;;;;;;;18.26;100.00;102239.13;1867555;75;86537;-76
2021/06/15 06:53:09;;;;;;;5.37;2.07;;;;;;;18.39;100.00;102242.59;1904944;73;39398;-76
2021/06/15 06:58:34;;;;;;;4.93;2.30;;;;;;;18.29;100.00;102242.73;1908728;73;39871;-68
2021/06/15 07:03:58;;;;;;;8.77;2.67;;;;;;;18.45;100.00;102246.42;1764105;79;86908;-76
2021/06/15 07:09:23;;;;;;;8.03;2.60;;;;;;;18.40;100.00;102237.25;1915413;73;39539;-77
2021/06/15 07:14:47;;;;;;;8.90;2.57;;;;;;;18.43;100.00;102231.00;1877482;76;86929;-75
2021/06/15 07:20:13;;;;;;;8.07;2.17;;;;;;;18.82;100.00;102232.94;1947136;73;39610;-67
2021/06/15 07:25:40;;;;;;;6.97;2.67;;;;;;;18.77;100.00;102240.63;1877325;75;86627;-75
2021/06/15 07:31:04;;;;;;;6.53;2.23;;;;;;;19.29;100.00;102227.58;1924815;73;39781;-68
2021/06/15 07:36:32;;;;;;;6.07;2.43;;;;;;;19.08;100.00;102232.73;1910949;73;39704;-68
2021/06/15 07:41:58;;;;;;;4.83;2.03;;;;;;;19.01;100.00;102237.94;1838228;77;86383;-76
2021/06/15 07:47:24;;;;;;;5.63;1.93;;;;;;;19.22;100.00;102238.97;1913644;73;39451;-68
2021/06/15 07:52:48;;;;;;;6.53;2.27;;;;;;;20.07;100.00;102253.95;1877475;76;87043;-77
2021/06/15 07:58:13;;;;;;;8.33;2.50;;;;;;;20.16;100.00;102246.38;1919915;73;39687;-78
2021/06/15 08:03:38;;;;;;;8.83;2.87;;;;;;;20.36;100.00;102255.86;1877129;75;86537;-75
2021/06/15 08:09:02;;;;;;;8.10;2.97;;;;;;;20.28;100.00;102246.70;1939775;72;39757;-69
2021/06/15 08:14:26;;;;;;;7.77;2.70;;;;;;;20.89;100.00;102248.33;1944298;73;39712;-66
2021/06/15 08:19:51;;;;;;;5.90;2.47;;;;;;;20.72;100.00;102234.07;1776632;78;85588;-68
2021/06/15 08:25:19;;;;;;;4.83;2.30;;;;;;;20.75;100.00;102224.14;1946311;73;39600;-76
2021/06/15 08:30:44;;;;;;;6.53;2.40;;;;;;;21.29;100.00;102206.90;1837129;77;86662;-78
2021/06/15 08:36:08;;;;;;;7.20;2.37;;;;;;;21.27;100.00;102212.02;1948265;73;39621;-78
2021/06/15 08:41:34;;;;;;;8.23;2.53;;;;;;;21.41;100.00;102206.28;1911004;72;40124;-76
2021/06/15 08:49:48;;;;;;;6.17;2.70;;;;;;;21.46;100.00;102195.41;1915293;75;86521;-66
2021/06/15 08:52:18;;;;;;;9.53;2.80;;;;;;;21.46;100.00;102189.17;1819438;77;934550;-76
2021/06/15 08:54:49;;;;;;;4.60;2.50;;;;;;;21.71;100.00;102197.49;1801117;79;936538;-75
2021/06/15 08:57:21;;;;;;;5.37;2.45;;;;;;;21.75;100.00;102208.41;1815948;77;936885;-76
2021/06/15 08:59:52;;;;;;;5.07;2.30;;;;;;;21.93;100.00;102209.32;1823307;77;936558;-66
2021/06/15 09:02:22;;;;;;;5.40;2.75;;;;;;;22.10;100.00;102200.87;1787743;79;936616;-66
2021/06/15 09:04:52;;;;;;;6.10;2.40;;;;;;;21.95;100.00;102202.77;1823311;78;936533;-76
2021/06/15 09:07:23;;;;;;;4.75;2.25;;;;;;;21.74;100.00;102206.16;1787686;78;936582;-66
2021/06/15 09:09:53;;;;;;;6.07;2.37;;;;;;;21.61;100.00;102203.44;1801094;78;936648;-66
2021/06/15 09:12:24;;;;;;;7.35;2.65;;;;;;;21.94;100.00;102198.27;1796146;77;936700;-66
2021/06/15 09:14:55;;;;;;;6.37;2.40;;;;;;;22.06;100.00;102200.70;1781673;79;936681;-66
2021/06/15 09:17:37;;;;;;;6.22;2.35;;;;;;;22.25;100.00;102198.95;1752817;78;936838;-76
2021/06/15 09:23:11;;;;;;;6.33;2.20;;;;;;;22.38;100.00;102190.89;1947492;73;39530;-69
2021/06/15 09:28:36;;;;;;;5.33;2.67;;;;;;;22.55;100.00;102185.22;1877158;75;86178;-77
2021/06/15 09:34:01;;;;;;;6.60;2.63;;;;;;;22.92;100.00;102185.14;1833647;78;86166;-76
2021/06/15 09:39:25;;;;;;;5.37;2.40;;;;;;;22.52;100.00;102185.91;1944484;73;39576;-69
2021/06/15 09:44:49;;;;;;;8.33;3.20;;;;;;;22.86;100.00;102180.80;1837752;77;86152;-78
2021/06/15 09:50:12;;;;;;;3.67;2.10;;;;;;;23.07;100.00;102169.00;1946822;73;40261;-69
2021/06/15 09:55:48;;;;;;;4.65;2.40;;;;;;;23.16;100.00;102159.05;1877095;75;86415;-75
2021/06/15 10:01:24;;;;;;;4.58;2.40;;;;;;;23.35;100.00;102158.66;1946748;73;39415;-76
2021/06/15 10:07:09;;;;;;;5.58;2.70;;;;;;;23.32;100.00;102153.67;1921428;73;39800;-75
2021/06/15 10:12:35;;;;;;;7.70;2.90;;;;;;;23.36;100.00;102150.41;1845729;77;86393;-76
2021/06/15 10:18:01;;;;;;;5.17;2.75;;;;;;;23.45;100.00;102156.87;1946529;71;86005;-78
2021/06/15 10:23:26;;;;;;;6.60;3.27;;;;;;;23.56;100.00;102141.98;1914388;72;39542;-80
2021/06/15 10:28:50;;;;;;;3.67;2.37;;;;;;;23.16;100.00;102143.45;1837586;77;86595;-75
2021/06/15 10:31:30;;;;;;;6.80;2.50;;;;;;;23.14;100.00;102147.23;1786792;78;936466;-66
2021/06/15 10:36:55;;;;;;;5.15;2.62;;;;;;;23.17;100.00;102142.30;1782258;79;87132;-66
2021/06/15 10:42:32;;;;;;;7.30;3.05;;;;;;;23.21;100.00;102134.77;1909309;73;39429;-66
2021/06/15 10:48:47;;;;;;;7.33;3.40;;;;;;;23.50;100.00;102130.57;1898650;73;39586;-75
2021/06/15 10:54:41;;;;;;;7.53;3.08;;;;;;;23.22;100.00;102127.10;1911471;73;39546;-76
2021/06/15 11:03:24;;;;;;;7.90;2.80;;;;;;;23.63;100.00;102124.41;1957584;71;39370;-66
2021/06/15 11:05:58;;;;;;;7.35;2.90;;;;;;;23.67;100.00;102124.55;1880767;75;932571;-76
2021/06/15 11:08:30;;;;;;;4.70;3.40;;;;;;;23.53;100.00;102112.86;1868650;75;936546;-68
2021/06/15 11:11:02;;;;;;;5.83;3.42;;;;;;;23.48;100.00;102118.75;1880749;75;934750;-76
2021/06/15 11:13:46;;;;;;;6.40;2.60;;;;;;;23.45;100.00;102112.32;1868350;75;936582;-69
2021/06/15 11:16:27;;;;;;;7.25;3.22;;;;;;;23.45;100.00;102115.16;1868346;75;936583;-79
2021/06/15 11:22:33;;;;;;;6.10;3.15;;;;;;;23.88;100.00;102112.63;1909573;73;40491;-77
2021/06/15 11:27:57;;;;;;;6.85;3.95;;;;;;;23.75;100.00;102100.95;1829426;77;85617;-67
2021/06/15 11:33:27;;;;;;;6.92;3.37;;;;;;;23.78;100.00;102103.96;1917964;73;39614;-76
2021/06/15 11:39:27;;;;;;;6.28;3.12;;;;;;;23.96;100.00;102081.96;1837650;77;86639;-75
2021/06/15 11:48:16;;;;;;;9.18;3.50;;;;;;;23.95;100.00;102069.77;2008779;69;39677;-74
2021/06/15 11:50:48;;;;;;;7.75;3.22;;;;;;;24.07;100.00;102078.09;1861012;75;934477;-68
2021/06/15 11:53:20;;;;;;;5.37;3.67;;;;;;;24.04;100.00;102073.95;1841166;75;936747;-76
2021/06/15 11:55:53;;;;;;;5.87;3.72;;;;;;;23.91;100.00;102074.48;1895121;74;936900;-68
2021/06/15 11:58:25;;;;;;;5.97;3.63;;;;;;;23.92;100.00;102076.70;1882837;74;936599;-68
2021/06/15 12:00:58;;;;;;;8.38;3.45;;;;;;;24.13;100.00;102077.55;1895117;73;934781;-75
2021/06/15 12:03:29;;;;;;;7.28;3.90;;;;;;;23.97;100.00;102078.75;1882578;75;935597;-74
2021/06/15 12:06:00;;;;;;;6.87;3.62;;;;;;;23.86;100.00;102078.11;1876772;75;934710;-75
2021/06/15 12:08:32;;;;;;;8.13;3.35;;;;;;;23.97;100.00;102082.18;1875354;75;936655;-79
2021/06/15 12:11:06;;;;;;;9.88;4.95;;;;;;;24.19;100.00;102071.08;1895147;75;934738;-69
2021/06/15 12:13:36;;;;;;;6.97;4.42;;;;;;;24.08;100.00;102067.83;1895027;75;936562;-69
2021/06/15 12:16:10;;;;;;;7.92;3.80;;;;;;;23.96;100.00;102072.02;1928542;73;934676;-76
2021/06/15 12:18:43;;;;;;;4.92;2.90;;;;;;;23.92;100.00;102066.77;1895083;75;935459;-68
2021/06/15 12:24:12;;;;;;;6.05;3.83;;;;;;;24.21;100.00;102047.45;1936680;72;39696;-73
2021/06/15 12:29:37;;;;;;;6.22;3.83;;;;;;;24.38;100.00;102047.27;1877131;75;86003;-74
2021/06/15 12:35:19;;;;;;;5.30;3.40;;;;;;;24.49;100.00;102035.11;1893242;73;39613;-76
2021/06/15 12:41:05;;;;;;;5.97;3.62;;;;;;;24.72;100.00;102026.16;1845050;76;85648;-69
2021/06/15 12:46:37;;;;;;;7.25;3.90;;;;;;;24.68;100.00;102013.84;1888821;75;86530;-71
2021/06/15 12:52:04;;;;;;;7.50;4.00;;;;;;;24.69;100.00;102012.66;1838319;77;86530;-73
2021/06/15 12:57:30;;;;;;;5.97;3.60;;;;;;;24.72;100.00;102007.10;1912347;73;39658;-79
2021/06/15 13:03:12;;;;;;;7.83;3.70;;;;;;;24.77;100.00;102002.58;1837893;77;86661;-75
2021/06/15 13:08:38;;;;;;;7.67;3.45;;;;;;;24.81;100.00;101995.03;1876854;75;86263;-69
2021/06/15 13:14:07;;;;;;;8.38;3.98;;;;;;;24.77;100.00;101988.98;1948184;73;39856;-76
2021/06/15 13:19:57;;;;;;;5.72;3.62;;;;;;;24.77;100.00;101974.78;1876854;75;86782;-69
2021/06/15 13:25:31;;;;;;;5.67;3.52;;;;;;;24.64;100.00;101973.94;1926703;72;39623;-66
2021/06/15 13:30:57;;;;;;;5.75;3.45;;;;;;;24.83;100.00;101961.97;1877199;75;86673;-73
2021/06/15 13:36:29;;;;;;;6.08;3.80;;;;;;;24.52;100.00;101960.31;1910723;73;39607;-67
2021/06/15 13:42:07;;;;;;;5.37;3.37;;;;;;;24.65;100.00;101947.75;1905867;73;39577;-67
2021/06/15 13:47:33;;;;;;;4.22;3.20;;;;;;;24.88;100.00;101945.55;1890842;74;39596;-67
2021/06/15 13:52:55;;;;;;;3.83;3.02;;;;;;;24.79;100.00;101929.17;1838014;77;86635;-68
2021/06/15 13:58:20;;;;;;;5.42;3.90;;;;;;;24.91;100.00;101926.34;1915730;72;39637;-67
2021/06/15 14:03:44;;;;;;;5.67;3.12;;;;;;;24.75;100.00;101921.13;1836935;77;86273;-67
2021/06/15 14:09:08;;;;;;;4.62;3.05;;;;;;;24.65;100.00;101923.59;1937862;72;39570;-74
2021/06/15 14:14:34;;;;;;;3.52;3.17;;;;;;;24.52;100.00;101909.17;1942658;73;39606;-73
2021/06/15 14:19:59;;;;;;;5.15;3.35;;;;;;;24.85;100.00;101911.30;1761561;80;86698;-74
2021/06/15 14:25:27;;;;;;;6.28;3.60;;;;;;;24.97;100.00;101908.47;1944540;73;39486;-70
2021/06/15 14:30:51;;;;;;;4.28;3.40;;;;;;;25.04;100.00;101892.21;1822834;77;85422;-67
2021/06/15 14:36:17;;;;;;;6.35;3.10;;;;;;;25.07;100.00;101882.40;1921144;73;39671;-74
2021/06/15 14:41:41;;;;;;;5.00;3.52;;;;;;;25.12;100.00;101879.28;1882346;75;86119;-71
2021/06/15 14:49:53;;;;;;;5.08;3.47;;;;;;;25.17;100.00;101877.61;1914992;75;86033;-67
2021/06/15 14:52:23;;;;;;;3.47;3.17;;;;;;;25.10;100.00;101872.31;1818892;77;934661;-66
2021/06/15 14:54:53;;;;;;;3.47;2.75;;;;;;;25.12;100.00;101867.91;1800647;78;935555;-72
2021/06/15 14:57:24;;;;;;;3.42;2.98;;;;;;;25.16;100.00;101867.42;1794608;78;935725;-75
2021/06/15 14:59:54;;;;;;;4.95;3.58;;;;;;;25.09;100.00;101862.95;1781064;78;935268;-75
2021/06/15 15:02:24;;;;;;;4.92;3.30;;;;;;;24.90;100.00;101866.41;1769611;79;935836;-76
2021/06/15 15:04:54;;;;;;;3.90;3.30;;;;;;;24.99;100.00;101863.44;1803430;78;936558;-66
2021/06/15 15:10:20;;;;;;;4.37;3.52;;;;;;;25.29;100.00;101853.40;1917081;73;39628;-75
2021/06/15 15:15:44;;;;;;;6.65;3.33;;;;;;;25.31;100.00;101851.63;1836894;77;86651;-76
2021/06/15 15:21:09;;;;;;;4.47;3.05;;;;;;;25.21;100.00;101847.27;1947861;73;39426;-66
2021/06/15 15:26:36;;;;;;;6.37;3.42;;;;;;;25.25;100.00;101843.94;1904260;75;86325;-66
2021/06/15 15:32:01;;;;;;;3.75;3.33;;;;;;;25.38;100.00;101828.48;1838277;77;85831;-66
2021/06/15 15:37:26;;;;;;;3.90;2.70;;;;;;;25.32;100.00;101826.27;1912939;73;41582;-76
2021/06/15 15:42:51;;;;;;;3.80;3.20;;;;;;;25.39;100.00;101826.46;1786492;78;86139;-78
2021/06/15 15:48:14;;;;;;;3.12;2.40;;;;;;;25.51;100.00;101817.03;1919075;73;39576;-74
2021/06/15 15:53:40;;;;;;;5.17;3.10;;;;;;;25.42;100.00;101820.04;1876638;75;86331;-75
2021/06/15 15:59:03;;;;;;;5.00;2.92;;;;;;;25.52;100.00;101812.41;1925066;73;39834;-67
2021/06/15 16:04:28;;;;;;;5.03;3.00;;;;;;;25.39;100.00;101803.11;1943836;73;39536;-73
2021/06/15 16:09:52;;;;;;;4.28;2.77;;;;;;;25.46;100.00;101795.98;1782561;79;86346;-78
2021/06/15 16:15:22;;;;;;;7.25;3.00;;;;;;;25.46;100.00;101794.56;1899870;73;39614;-68
2021/06/15 16:20:48;;;;;;;4.05;3.10;;;;;;;25.29;100.00;101784.30;1867067;75;86813;-68
2021/06/15 16:26:32;;;;;;;3.55;3.10;;;;;;;25.50;100.00;101774.94;1957010;71;39556;-76
2021/06/15 16:32:16;;;;;;;4.05;2.98;;;;;;;25.61;100.00;101770.42;1842210;76;86787;-76
2021/06/15 16:37:41;;;;;;;5.10;3.25;;;;;;;25.63;100.00;101765.17;1876928;75;86553;-76
2021/06/15 16:43:07;;;;;;;4.78;3.27;;;;;;;25.59;100.00;101753.47;1948138;73;39428;-75
2021/06/15 16:48:30;;;;;;;3.37;2.58;;;;;;;25.61;100.00;101744.81;1943221;72;39598;-67
2021/06/15 16:53:55;;;;;;;3.00;2.70;;;;;;;25.56;100.00;101735.12;1886970;74;86216;-66
2021/06/15 16:59:21;;;;;;;5.30;3.40;;;;;;;25.64;100.00;101741.81;1918669;72;39686;-66
2021/06/15 17:04:42;;;;;;;3.27;2.98;;;;;;;25.63;100.00;101739.56;1831650;71;40134;-71
2021/06/15 17:10:09;;;;;;;4.47;2.90;;;;;;;25.60;100.00;101734.61;1948548;73;39562;-70
2021/06/15 17:15:36;;;;;;;4.03;3.05;;;;;;;25.70;100.00;101731.23;1881115;75;86497;-72
2021/06/15 17:21:07;;;;;;;4.25;2.75;;;;;;;25.73;100.00;101722.55;1784923;79;86816;-69
2021/06/15 17:26:33;;;;;;;3.75;2.90;;;;;;;25.61;100.00;101720.63;1930829;72;39486;-69
2021/06/15 17:31:57;;;;;;;3.50;2.58;;;;;;;25.65;100.00;101715.02;1838165;77;86810;-72
2021/06/15 17:37:21;;;;;;;3.12;2.77;;;;;;;25.60;100.00;101716.71;1945000;73;39503;-70
2021/06/15 17:42:50;;;;;;;4.75;2.80;;;;;;;25.62;100.00;101714.34;1837115;77;86659;-71
2021/06/15 17:48:12;;;;;;;3.33;2.83;;;;;;;25.61;100.00;101705.56;1947009;73;39779;-72
2021/06/15 17:53:37;;;;;;;3.87;2.80;;;;;;;25.58;100.00;101706.31;1881684;75;85419;-73
2021/06/15 17:59:03;;;;;;;3.37;2.65;;;;;;;25.51;100.00;101701.20;1907862;73;39753;-70
2021/06/15 18:04:36;;;;;;;4.53;2.90;;;;;;;25.50;100.00;101693.86;1939741;73;39545;-72
2021/06/15 18:09:55;;;;;;;2.85;2.65;;;;;;;25.39;100.00;101686.48;1761671;80;86764;-72
2021/06/15 18:18:09;;;;;;;3.83;2.90;;;;;;;25.54;100.00;101683.45;2004500;69;39568;-70
2021/06/15 18:20:41;;;;;;;15.53;5.03;;;;;;;25.49;100.00;101680.02;1861162;76;934427;-71
2021/06/15 18:23:11;;;;;;;3.52;2.50;;;;;;;25.41;100.00;101686.72;1836793;76;938708;-72
2021/06/15 18:25:42;;;;;;;3.08;2.50;;;;;;;25.48;100.00;101682.62;1857837;76;936876;-71
2021/06/15 18:28:14;;;;;;;4.37;2.80;;;;;;;25.45;100.00;101680.52;1881216;73;936603;-70
2021/06/15 18:30:45;;;;;;;3.27;2.55;;;;;;;25.38;100.00;101680.55;1851373;76;936649;-73
2021/06/15 18:33:15;;;;;;;3.10;2.42;;;;;;;25.22;100.00;101679.72;1853155;75;935700;-72
2021/06/15 18:35:46;;;;;;;3.77;2.45;;;;;;;25.07;100.00;101672.59;1877451;75;936535;-73
2021/06/15 18:38:16;;;;;;;4.00;2.55;;;;;;;24.91;100.00;101668.27;1817248;76;936687;-71
2021/06/15 18:40:46;;;;;;;5.03;2.63;;;;;;;24.78;100.00;101666.05;1822383;77;936580;-72
2021/06/15 18:43:16;;;;;;;4.20;3.20;;;;;;;24.71;100.00;101664.43;1815041;76;936792;-71
2021/06/15 18:48:41;;;;;;;3.27;2.98;;;;;;;24.91;100.00;101652.63;1876867;75;86534;-69
2021/06/15 18:54:07;;;;;;;3.27;2.67;;;;;;;25.09;100.00;101654.55;1948436;73;39801;-70
2021/06/15 18:59:32;;;;;;;3.70;2.80;;;;;;;25.05;100.00;101659.31;1909122;73;39528;-72
2021/06/15 19:04:57;;;;;;;7.55;3.20;;;;;;;25.01;100.00;101658.39;1838176;77;85641;-69
2021/06/15 19:10:22;;;;;;;3.10;2.72;;;;;;;24.94;100.00;101655.57;1896166;73;39408;-70
2021/06/15 19:15:48;;;;;;;5.25;3.00;;;;;;;24.87;100.00;101654.55;1869238;76;85679;-70
2021/06/15 19:21:14;;;;;;;5.97;3.35;;;;;;;24.76;100.00;101648.55;1946733;73;39789;-70
2021/06/15 19:26:39;;;;;;;4.80;3.47;;;;;;;24.62;100.00;101651.55;1881870;75;86248;-69
2021/06/15 19:32:06;;;;;;;4.03;3.20;;;;;;;24.55;100.00;101639.41;1924846;73;39526;-69
2021/06/15 19:37:31;;;;;;;4.75;3.22;;;;;;;24.53;100.00;101646.62;1943290;73;39695;-72
2021/06/15 19:42:56;;;;;;;6.37;3.77;;;;;;;24.29;100.00;101643.27;1838038;77;86496;-70
2021/06/15 19:48:20;;;;;;;4.72;3.40;;;;;;;24.15;100.00;101632.30;1945615;73;39778;-70
2021/06/15 19:53:45;;;;;;;5.28;3.85;;;;;;;23.96;100.00;101634.92;1837109;77;86349;-70
2021/06/15 19:59:09;;;;;;;4.60;3.72;;;;;;;23.90;100.00;101638.59;1937328;73;39515;-71
2021/06/15 20:04:37;;;;;;;4.45;4.05;;;;;;;23.70;100.00;101635.30;1942131;73;86395;-73
2021/06/15 20:10:01;;;;;;;4.42;4.03;;;;;;;23.66;100.00;101637.16;1829102;78;86447;-72
2021/06/15 20:15:26;;;;;;;5.97;3.92;;;;;;;23.48;100.00;101646.52;1944405;73;39581;-73
2021/06/15 20:20:51;;;;;;;5.35;4.20;;;;;;;23.32;100.00;101644.70;1777340;79;86399;-72
2021/06/15 20:26:18;;;;;;;7.78;4.95;;;;;;;23.19;100.00;101650.91;1935277;72;39707;-72
2021/06/15 20:31:43;;;;;;;5.42;4.80;;;;;;;23.03;100.00;101662.69;1877053;75;85576;-73
2021/06/15 20:37:07;;;;;;;6.10;5.50;;;;;;;22.93;100.00;101667.41;1905526;73;39659;-73
2021/06/15 20:42:31;;;;;;;7.10;6.22;;;;;;;22.81;100.00;101673.00;1890356;73;39692;-72
2021/06/15 20:47:54;;;;;;;7.62;6.92;;;;;;;22.56;100.00;101678.53;1777478;80;85368;-72
2021/06/15 20:53:18;;;;;;;10.55;7.90;;;;;;;22.39;100.00;101684.92;1901499;73;39839;-72
2021/06/15 20:58:42;;;;;;;8.73;7.42;;;;;;;22.32;100.00;101682.66;1892949;74;85301;-71
2021/06/15 21:04:07;;;;;;;9.78;7.72;;;;;;;22.21;100.00;101679.38;1948274;73;39581;-70
2021/06/15 21:09:32;;;;;;;9.50;7.65;;;;;;;22.16;100.00;101681.61;1943287;73;39597;-71
2021/06/15 21:14:56;;;;;;;8.30;7.50;;;;;;;22.07;100.00;101678.00;1838216;77;86574;-75
2021/06/15 21:20:24;;;;;;;9.48;8.60;;;;;;;21.96;100.00;101678.14;1945312;73;39773;-76
2021/06/15 21:25:55;;;;;;;11.37;8.10;;;;;;;21.74;100.00;101677.23;1861005;76;86170;-74
2021/06/15 21:31:17;;;;;;;12.45;8.68;;;;;;;21.77;100.00;101682.81;1946020;73;39570;-72
2021/06/15 21:36:42;;;;;;;10.57;8.63;;;;;;;21.74;100.00;101682.89;1883020;75;86603;-71
2021/06/15 21:42:08;;;;;;;10.82;9.03;;;;;;;21.62;100.00;101679.96;1948827;73;39648;-74
2021/06/15 21:47:33;;;;;;;10.87;9.23;;;;;;;21.41;100.00;101679.63;1909358;74;39595;-74
2021/06/15 21:52:56;;;;;;;9.30;8.50;;;;;;;21.37;100.00;101673.00;1838025;77;86812;-74
2021/06/15 21:58:22;;;;;;;9.10;8.20;;;;;;;21.33;100.00;101667.20;1900981;73;39504;-75
2021/06/15 22:03:48;;;;;;;11.20;9.37;;;;;;;21.40;100.00;101677.39;1837531;77;86370;-76
2021/06/15 22:09:15;;;;;;;11.33;9.60;;;;;;;21.22;100.00;101672.98;1903256;73;39539;-75
2021/06/15 22:14:39;;;;;;;10.30;9.30;;;;;;;21.18;100.00;101674.22;1892183;74;86463;-74
2021/06/15 22:20:07;;;;;;;10.93;9.77;;;;;;;21.13;100.00;101663.70;1948853;73;39840;-75
2021/06/15 22:25:33;;;;;;;10.27;9.20;;;;;;;21.12;100.00;101660.59;1943036;73;39690;-74
2021/06/15 22:31:00;;;;;;;10.07;9.07;;;;;;;21.06;100.00;101666.99;1838513;77;85528;-75
2021/06/15 22:36:24;;;;;;;10.13;9.13;;;;;;;21.00;100.00;101666.11;1944671;73;39685;-75
2021/06/15 22:41:49;;;;;;;10.00;8.80;;;;;;;20.95;100.00;101664.88;1837454;77;86399;-74
2021/06/15 22:47:13;;;;;;;11.60;9.23;;;;;;;20.84;100.00;101664.37;1884021;73;39612;-74
2021/06/15 22:52:36;;;;;;;11.93;10.83;;;;;;;20.72;100.00;101669.88;1877209;75;86262;-76
2021/06/15 22:58:06;;;;;;;13.83;11.27;;;;;;;20.43;100.00;101669.16;1949273;73;39515;-74
2021/06/15 23:03:34;;;;;;;12.90;11.30;;;;;;;20.41;100.00;101667.23;1931103;72;39551;-76
2021/06/15 23:08:58;;;;;;;12.33;11.23;;;;;;;20.29;100.00;101667.03;1777208;80;86355;-75